Time;durP1;ratioP1;P1;durP2;ratioP2;P2;SDS_P1;SDS_P2;PMS_P1;PMS_P2;Temp;Humidity;BMP_temperature;BMP_pressure;BME280_temperature;BME280_humidity;BME280_pressure;Samples;Min_cycle;Max_cycle;Signal;HPM_P1;HPM_P2
2023/08/08 00:00:44;;;;;;;5.85;3.03;;;12.70;99.90;;;;;;5071536;28;20024;-84
2023/08/08 00:03:09;;;;;;;4.30;2.33;;;12.70;99.90;;;;;;5075704;28;20477;-85
2023/08/08 00:05:35;;;;;;;5.60;3.00;;;12.60;99.90;;;;;;5077761;28;20069;-83
2023/08/08 00:08:01;;;;;;;6.50;2.70;;;12.60;99.90;;;;;;5079983;28;20023;-84
2023/08/08 00:10:26;;;;;;;3.97;3.00;;;12.60;99.90;;;;;;5075878;28;20021;-84
2023/08/08 00:12:52;;;;;;;6.75;3.35;;;12.60;99.90;;;;;;5075549;28;20017;-83
2023/08/08 00:15:18;;;;;;;5.90;3.53;;;12.60;99.90;;;;;;5073845;28;20046;-80
2023/08/08 00:17:43;;;;;;;7.03;3.60;;;12.60;99.90;;;;;;5074369;28;20024;-78
2023/08/08 00:20:09;;;;;;;5.50;3.47;;;12.60;99.90;;;;;;5074265;28;20135;-81
2023/08/08 00:22:35;;;;;;;7.88;3.42;;;12.60;99.90;;;;;;5074404;28;20107;-82
2023/08/08 00:25:01;;;;;;;3.85;2.13;;;12.60;99.90;;;;;;5074112;28;20095;-81
2023/08/08 00:27:26;;;;;;;4.32;1.95;;;12.50;99.90;;;;;;5074295;28;20013;-82
2023/08/08 00:29:53;;;;;;;3.33;2.17;;;12.50;99.90;;;;;;5074170;28;20107;-83
2023/08/08 00:32:19;;;;;;;3.15;1.83;;;12.50;99.90;;;;;;5074292;28;20017;-82
2023/08/08 00:34:44;;;;;;;1.83;1.70;;;12.40;99.90;;;;;;5075210;28;20055;-83
2023/08/08 00:37:10;;;;;;;2.10;1.80;;;12.50;99.90;;;;;;5073932;28;20508;-81
2023/08/08 00:39:36;;;;;;;3.83;2.70;;;12.50;99.90;;;;;;5073978;28;20081;-82
2023/08/08 00:42:02;;;;;;;4.40;2.47;;;12.50;99.90;;;;;;5075321;28;20025;-81
2023/08/08 00:44:27;;;;;;;2.40;1.90;;;12.40;99.90;;;;;;5073847;28;20020;-79
2023/08/08 00:46:53;;;;;;;3.45;1.70;;;12.40;99.90;;;;;;5075275;28;20020;-83
2023/08/08 00:49:19;;;;;;;3.55;2.13;;;12.40;99.90;;;;;;5073733;28;20016;-82
2023/08/08 00:51:45;;;;;;;4.63;2.05;;;12.40;99.90;;;;;;5075221;28;20039;-80
2023/08/08 00:54:11;;;;;;;2.35;2.00;;;12.40;99.90;;;;;;5073589;28;20406;-81
2023/08/08 00:56:37;;;;;;;3.05;1.88;;;12.40;99.90;;;;;;5071639;28;20028;-80
2023/08/08 00:59:03;;;;;;;4.85;2.55;;;12.40;99.90;;;;;;5072996;28;20432;-81
2023/08/08 01:01:29;;;;;;;4.10;2.03;;;12.30;99.90;;;;;;5073126;28;20023;-82
2023/08/08 01:03:54;;;;;;;5.90;2.22;;;12.30;99.90;;;;;;5074404;28;20107;-82
2023/08/08 01:06:28;;;;;;;4.05;1.95;;;12.30;99.90;;;;;;5074702;28;20497;-80
2023/08/08 01:09:15;;;;;;;6.05;2.25;;;12.30;99.90;;;;;;5067620;28;20024;-81
2023/08/08 01:11:41;;;;;;;3.03;1.83;;;12.30;99.90;;;;;;5074531;28;20056;-81
2023/08/08 01:14:08;;;;;;;2.67;1.63;;;12.30;99.90;;;;;;5072707;28;20053;-80
2023/08/08 01:16:34;;;;;;;3.08;2.00;;;12.20;99.90;;;;;;5072981;28;20136;-80
2023/08/08 01:19:01;;;;;;;3.70;2.20;;;12.20;99.90;;;;;;5072921;28;20529;-82
2023/08/08 01:21:30;;;;;;;5.75;1.80;;;12.20;99.90;;;;;;5072994;28;20074;-80
2023/08/08 01:24:21;;;;;;;4.40;2.22;;;12.10;99.90;;;;;;5074497;28;20048;-80
2023/08/08 01:26:47;;;;;;;4.65;2.25;;;12.10;99.90;;;;;;5074258;28;20778;-80
2023/08/08 01:29:13;;;;;;;3.45;1.80;;;12.00;99.90;;;;;;5073088;28;20025;-81
2023/08/08 01:31:38;;;;;;;2.55;2.00;;;12.00;99.90;;;;;;5072754;28;20024;-80
2023/08/08 01:34:04;;;;;;;7.25;1.98;;;12.00;99.90;;;;;;5072902;28;20037;-80
2023/08/08 01:36:46;;;;;;;2.97;2.47;;;11.90;99.90;;;;;;5072486;28;20024;-82
2023/08/08 01:39:16;;;;;;;2.15;1.85;;;11.90;99.90;;;;;;5074288;28;20107;-82
2023/08/08 01:41:44;;;;;;;3.35;1.80;;;11.80;99.90;;;;;;5073701;28;20125;-82
2023/08/08 01:44:10;;;;;;;2.85;2.10;;;11.80;99.90;;;;;;5074029;28;20025;-79
2023/08/08 01:46:38;;;;;;;1.98;1.77;;;11.70;99.90;;;;;;5058990;28;20012;-83
2023/08/08 01:49:03;;;;;;;4.60;2.30;;;11.70;99.90;;;;;;5073596;28;20021;-82
2023/08/08 01:51:29;;;;;;;2.38;2.10;;;11.70;99.90;;;;;;5074101;28;20381;-84
2023/08/08 01:53:55;;;;;;;8.85;2.05;;;11.60;99.90;;;;;;5072395;28;20024;-81
2023/08/08 01:56:20;;;;;;;3.88;2.33;;;11.60;99.90;;;;;;5072153;28;20095;-80
2023/08/08 01:58:46;;;;;;;5.57;2.20;;;11.60;99.90;;;;;;5073778;28;20365;-80
2023/08/08 02:01:12;;;;;;;3.30;1.85;;;11.50;99.90;;;;;;5072366;28;20029;-81
2023/08/08 02:03:38;;;;;;;4.95;2.55;;;11.50;99.90;;;;;;5073674;28;20453;-80
2023/08/08 02:06:03;;;;;;;2.63;1.80;;;11.50;99.90;;;;;;5072416;28;20020;-81
2023/08/08 02:08:29;;;;;;;3.78;2.20;;;11.50;99.90;;;;;;5073221;28;20020;-82
2023/08/08 02:10:54;;;;;;;3.13;2.67;;;11.40;99.90;;;;;;5072423;28;20111;-83
2023/08/08 02:13:20;;;;;;;6.40;2.70;;;11.40;99.90;;;;;;5072039;28;20023;-82
2023/08/08 02:15:46;;;;;;;6.38;2.50;;;11.40;99.90;;;;;;5073107;28;20059;-82
2023/08/08 02:18:11;;;;;;;6.65;2.80;;;11.30;99.90;;;;;;5071921;28;20099;-83
2023/08/08 02:20:37;;;;;;;9.10;3.10;;;11.30;99.90;;;;;;5072072;28;20038;-82
2023/08/08 02:23:03;;;;;;;3.40;2.65;;;11.30;99.90;;;;;;5072835;28;20480;-81
2023/08/08 02:25:30;;;;;;;4.55;2.63;;;11.30;99.90;;;;;;5071612;28;20482;-82
2023/08/08 02:27:56;;;;;;;8.15;3.50;;;11.30;99.90;;;;;;5071549;28;20385;-81
2023/08/08 02:30:22;;;;;;;8.90;3.40;;;11.20;99.90;;;;;;5071912;28;20108;-83
2023/08/08 02:32:47;;;;;;;8.20;4.03;;;11.20;99.90;;;;;;5072554;28;20557;-83
2023/08/08 02:35:13;;;;;;;6.50;4.35;;;11.20;99.90;;;;;;5072568;28;20072;-82
2023/08/08 02:37:38;;;;;;;9.60;4.80;;;11.30;99.90;;;;;;5071634;28;20474;-80
2023/08/08 02:40:06;;;;;;;10.50;4.95;;;11.30;99.90;;;;;;5071683;28;20020;-82
2023/08/08 02:42:31;;;;;;;9.52;5.68;;;11.30;99.90;;;;;;5072984;28;20412;-82
2023/08/08 02:44:57;;;;;;;13.88;5.38;;;11.30;99.90;;;;;;5072817;28;20061;-80
2023/08/08 02:47:23;;;;;;;10.98;5.75;;;11.30;99.90;;;;;;5072639;28;20039;-83
2023/08/08 02:49:49;;;;;;;16.83;5.75;;;11.30;99.90;;;;;;5072597;28;20024;-83
2023/08/08 02:52:14;;;;;;;13.27;5.03;;;11.40;99.90;;;;;;5071520;28;20484;-83
2023/08/08 02:54:40;;;;;;;13.70;6.80;;;11.40;99.90;;;;;;5071275;28;20036;-81
2023/08/08 02:57:06;;;;;;;12.43;5.32;;;11.40;99.90;;;;;;5072636;28;20035;-80
2023/08/08 02:59:32;;;;;;;11.95;6.00;;;11.40;99.90;;;;;;5071373;28;20062;-80
2023/08/08 03:01:57;;;;;;;9.60;4.75;;;11.40;99.90;;;;;;5070142;28;20032;-82
2023/08/08 03:04:23;;;;;;;5.75;4.47;;;11.40;99.90;;;;;;5070535;28;20039;-82
2023/08/08 03:06:49;;;;;;;7.72;4.03;;;11.40;99.90;;;;;;5070351;28;20024;-82
2023/08/08 03:09:14;;;;;;;5.75;3.47;;;11.40;99.90;;;;;;5072221;28;20047;-82
2023/08/08 03:11:42;;;;;;;4.75;3.42;;;11.40;99.90;;;;;;5072209;28;20679;-82
2023/08/08 03:14:08;;;;;;;4.93;2.80;;;11.30;99.90;;;;;;5072087;28;20052;-82
2023/08/08 03:16:35;;;;;;;2.78;2.47;;;11.30;99.90;;;;;;5072341;28;20031;-81
2023/08/08 03:19:00;;;;;;;3.55;2.78;;;11.30;99.90;;;;;;5071299;28;20070;-82
2023/08/08 03:21:26;;;;;;;4.82;3.35;;;11.30;99.90;;;;;;5072556;28;20029;-82
2023/08/08 03:23:51;;;;;;;4.95;2.75;;;11.30;99.90;;;;;;5072353;28;20021;-82
2023/08/08 03:26:17;;;;;;;5.55;3.15;;;11.30;99.90;;;;;;5071305;28;20048;-82
2023/08/08 03:28:42;;;;;;;5.60;2.63;;;11.30;99.90;;;;;;5072434;28;20464;-82
2023/08/08 03:31:08;;;;;;;5.40;3.05;;;11.30;99.90;;;;;;5072531;28;20025;-82
2023/08/08 03:33:34;;;;;;;5.53;3.20;;;11.40;99.90;;;;;;5070794;28;20482;-82
2023/08/08 03:35:59;;;;;;;3.33;2.85;;;11.30;99.90;;;;;;5070305;28;20033;-82
2023/08/08 03:38:25;;;;;;;5.18;3.00;;;11.30;99.90;;;;;;5071668;28;20063;-82
2023/08/08 03:40:51;;;;;;;6.65;3.17;;;11.30;99.90;;;;;;5072530;28;20505;-82
2023/08/08 03:43:17;;;;;;;4.03;2.50;;;11.40;99.90;;;;;;5071288;28;20485;-81
2023/08/08 03:45:43;;;;;;;9.10;3.53;;;11.30;99.90;;;;;;5071356;28;20013;-82
2023/08/08 03:48:09;;;;;;;4.85;3.47;;;11.30;99.90;;;;;;5071891;28;20028;-82
2023/08/08 03:50:35;;;;;;;7.00;3.20;;;11.30;99.90;;;;;;5072345;28;20470;-82
2023/08/08 03:53:00;;;;;;;6.93;3.63;;;11.30;99.90;;;;;;5074356;28;20431;-82
2023/08/08 03:55:26;;;;;;;6.13;3.10;;;11.30;99.90;;;;;;5075914;28;20036;-81
2023/08/08 03:57:51;;;;;;;3.85;3.38;;;11.30;99.90;;;;;;5074819;28;20021;-81
2023/08/08 04:00:17;;;;;;;6.38;3.30;;;11.30;99.90;;;;;;5075948;28;20433;-81
2023/08/08 04:02:43;;;;;;;6.35;3.53;;;11.30;99.90;;;;;;5075763;28;20393;-81
2023/08/08 04:05:08;;;;;;;6.85;3.92;;;11.30;99.90;;;;;;5074577;28;20031;-82
2023/08/08 04:07:34;;;;;;;7.53;3.75;;;11.30;99.90;;;;;;5074150;28;20020;-82
2023/08/08 04:10:00;;;;;;;5.38;3.63;;;11.30;99.90;;;;;;5074515;28;20025;-82
2023/08/08 04:12:26;;;;;;;6.28;3.63;;;11.30;99.90;;;;;;5075568;28;20078;-81
2023/08/08 04:14:52;;;;;;;4.85;3.75;;;11.30;99.90;;;;;;5076211;28;20048;-81
2023/08/08 04:17:17;;;;;;;5.10;3.63;;;11.40;99.90;;;;;;5077241;28;20017;-82
2023/08/08 04:19:43;;;;;;;5.43;3.20;;;11.30;99.90;;;;;;5074572;28;20032;-82
2023/08/08 04:22:08;;;;;;;5.57;3.97;;;11.30;99.90;;;;;;5074354;28;20074;-82
2023/08/08 04:24:34;;;;;;;4.43;3.38;;;11.40;99.90;;;;;;5075864;28;20493;-81
2023/08/08 04:27:00;;;;;;;6.75;3.83;;;11.40;99.90;;;;;;5075522;28;20049;-80
2023/08/08 04:29:25;;;;;;;8.13;3.85;;;11.40;99.90;;;;;;5074404;28;20027;-81
2023/08/08 04:31:51;;;;;;;5.30;3.15;;;11.50;99.90;;;;;;5074282;28;20124;-81
2023/08/08 04:34:17;;;;;;;6.93;3.60;;;11.60;99.90;;;;;;5075272;28;20371;-81
2023/08/08 04:36:43;;;;;;;9.07;4.55;;;11.80;99.90;;;;;;5073870;28;20035;-82
2023/08/08 04:39:08;;;;;;;7.05;3.75;;;11.90;99.90;;;;;;5073981;28;20066;-81
2023/08/08 04:41:34;;;;;;;5.03;3.60;;;12.10;99.90;;;;;;5075522;28;20022;-82
2023/08/08 04:43:59;;;;;;;6.22;3.53;;;12.20;99.90;;;;;;5077272;28;20036;-83
2023/08/08 04:46:25;;;;;;;6.70;3.15;;;12.20;99.90;;;;;;5074800;28;20474;-81
2023/08/08 04:48:51;;;;;;;4.50;3.55;;;12.30;99.90;;;;;;5073788;28;20020;-82
2023/08/08 04:51:16;;;;;;;5.53;3.97;;;12.50;99.90;;;;;;5075504;28;20028;-81
2023/08/08 04:53:42;;;;;;;4.40;3.08;;;12.60;99.90;;;;;;5073695;28;20489;-81
2023/08/08 04:56:07;;;;;;;6.22;3.33;;;12.70;99.90;;;;;;5075086;28;20448;-83
2023/08/08 04:58:33;;;;;;;6.82;3.55;;;12.70;99.90;;;;;;5074885;28;20028;-81
2023/08/08 05:00:59;;;;;;;6.38;3.70;;;12.70;99.90;;;;;;5082570;28;20032;-82
2023/08/08 05:03:24;;;;;;;4.22;3.33;;;12.80;99.90;;;;;;5074251;28;20101;-80
2023/08/08 05:05:50;;;;;;;6.07;3.35;;;12.80;99.90;;;;;;5073969;28;20066;-81
2023/08/08 05:08:16;;;;;;;4.18;3.10;;;12.70;99.90;;;;;;5074852;28;20484;-82
2023/08/08 05:10:42;;;;;;;5.07;3.05;;;12.70;99.90;;;;;;5073758;28;20048;-82
2023/08/08 05:13:07;;;;;;;5.85;3.03;;;12.60;99.90;;;;;;5073497;28;20051;-81
2023/08/08 05:15:33;;;;;;;6.68;3.38;;;12.60;99.90;;;;;;5073380;28;20093;-81
2023/08/08 05:17:59;;;;;;;4.63;3.20;;;12.60;99.90;;;;;;5074888;28;20398;-82
2023/08/08 05:20:25;;;;;;;4.07;3.00;;;12.70;99.90;;;;;;5073605;28;20019;-82
2023/08/08 05:22:51;;;;;;;6.85;3.58;;;12.80;99.90;;;;;;5077193;28;20438;-81
2023/08/08 05:25:16;;;;;;;6.80;3.30;;;12.80;99.90;;;;;;5073797;28;20033;-82
2023/08/08 05:27:42;;;;;;;3.65;3.35;;;12.90;99.90;;;;;;5073125;28;20105;-82
2023/08/08 05:30:08;;;;;;;3.40;2.92;;;12.90;99.90;;;;;;5074554;28;20029;-82
2023/08/08 05:32:34;;;;;;;8.68;2.88;;;13.00;99.90;;;;;;5074371;28;20069;-82
2023/08/08 05:35:00;;;;;;;11.05;4.57;;;13.10;99.90;;;;;;5073321;28;20115;-82
2023/08/08 05:37:26;;;;;;;7.53;3.30;;;13.20;99.90;;;;;;5072927;28;20473;-83
2023/08/08 05:39:52;;;;;;;3.13;2.83;;;13.50;99.90;;;;;;5073208;28;20095;-82
2023/08/08 05:42:18;;;;;;;5.43;3.05;;;13.60;99.90;;;;;;5076029;28;20125;-81
2023/08/08 05:44:44;;;;;;;5.70;3.17;;;13.60;99.90;;;;;;5073827;28;20035;-81
2023/08/08 05:47:10;;;;;;;5.72;2.92;;;13.70;99.90;;;;;;5073026;28;20082;-83
2023/08/08 05:49:35;;;;;;;5.95;3.55;;;13.80;99.90;;;;;;5073978;28;20035;-82
2023/08/08 05:52:02;;;;;;;3.97;3.45;;;13.80;99.90;;;;;;5072729;28;20420;-83
2023/08/08 05:54:28;;;;;;;5.00;2.72;;;13.90;99.90;;;;;;5072632;28;20052;-84
2023/08/08 05:56:53;;;;;;;6.07;2.90;;;14.00;99.90;;;;;;5072669;28;20491;-82
2023/08/08 05:59:19;;;;;;;7.28;2.92;;;13.90;99.90;;;;;;5073787;28;20019;-81
2023/08/08 06:01:46;;;;;;;4.13;2.80;;;14.00;99.90;;;;;;5072830;28;20422;-82
2023/08/08 06:04:12;;;;;;;4.93;2.55;;;13.80;99.90;;;;;;5072718;28;20120;-81
2023/08/08 06:06:38;;;;;;;4.32;2.00;;;13.90;99.90;;;;;;5072349;28;20474;-82
2023/08/08 06:09:03;;;;;;;3.65;2.30;;;14.00;99.90;;;;;;5071693;28;20034;-83
2023/08/08 06:11:29;;;;;;;4.13;2.53;;;14.10;99.90;;;;;;5071804;28;20513;-83
2023/08/08 06:13:55;;;;;;;2.70;2.22;;;14.30;99.90;;;;;;5071460;28;20101;-82
2023/08/08 06:16:21;;;;;;;6.07;2.78;;;14.40;99.90;;;;;;5072129;28;20039;-83
2023/08/08 06:18:47;;;;;;;4.03;2.00;;;14.60;99.90;;;;;;5075537;28;20371;-83
2023/08/08 06:21:13;;;;;;;4.82;2.40;;;14.80;99.90;;;;;;5072103;28;20078;-83
2023/08/08 06:23:38;;;;;;;3.95;2.42;;;14.90;99.90;;;;;;5072271;28;20024;-82
2023/08/08 06:26:04;;;;;;;3.65;2.08;;;15.00;99.90;;;;;;5072036;28;20024;-80
2023/08/08 06:28:30;;;;;;;6.80;2.88;;;15.10;99.90;;;;;;5071755;28;20019;-83
2023/08/08 06:30:58;;;;;;;6.22;2.70;;;15.20;99.90;;;;;;5071489;28;20432;-84
2023/08/08 06:33:23;;;;;;;7.13;3.92;;;15.20;99.90;;;;;;5071334;28;20035;-83
2023/08/08 06:35:49;;;;;;;4.65;3.47;;;15.10;99.90;;;;;;5072772;28;20036;-84
2023/08/08 06:38:14;;;;;;;6.72;3.38;;;15.20;99.90;;;;;;5070204;28;20028;-83
2023/08/08 06:40:40;;;;;;;7.47;4.07;;;15.40;99.90;;;;;;5072944;28;20082;-84
2023/08/08 06:43:06;;;;;;;11.60;4.90;;;15.50;99.90;;;;;;5071533;28;20024;-84
2023/08/08 06:45:31;;;;;;;7.75;4.18;;;15.40;99.90;;;;;;5071612;28;20029;-84
2023/08/08 06:47:57;;;;;;;7.90;4.93;;;15.40;99.90;;;;;;5071475;28;20024;-84
2023/08/08 06:50:24;;;;;;;6.43;3.80;;;15.50;99.90;;;;;;5071389;28;20032;-84
2023/08/08 06:52:50;;;;;;;6.35;4.20;;;15.60;99.90;;;;;;5071383;28;20028;-83
2023/08/08 06:55:15;;;;;;;12.70;5.00;;;15.70;99.90;;;;;;5072612;28;20504;-83
2023/08/08 06:57:41;;;;;;;7.90;3.28;;;15.60;99.90;;;;;;5072536;28;20038;-83
2023/08/08 07:00:08;;;;;;;7.22;4.32;;;15.60;99.90;;;;;;5070949;28;20077;-84
2023/08/08 07:02:34;;;;;;;9.55;3.80;;;15.60;99.90;;;;;;5071268;28;20025;-84
2023/08/08 07:04:59;;;;;;;4.97;3.42;;;15.60;99.40;;;;;;5070290;28;20062;-83
2023/08/08 07:07:25;;;;;;;5.00;2.60;;;15.60;98.80;;;;;;5072619;28;20398;-83
2023/08/08 07:09:50;;;;;;;4.88;2.40;;;15.50;95.60;;;;;;5072087;28;20092;-84
2023/08/08 07:12:16;;;;;;;3.58;2.60;;;15.50;97.90;;;;;;5072547;28;20074;-84
2023/08/08 07:14:42;;;;;;;8.45;3.55;;;15.50;95.80;;;;;;5070570;28;20556;-83
2023/08/08 07:17:07;;;;;;;4.38;2.97;;;15.60;97.80;;;;;;5071187;28;20115;-85
2023/08/08 07:19:33;;;;;;;5.25;3.60;;;15.50;99.10;;;;;;5071131;28;20123;-85
2023/08/08 07:21:58;;;;;;;9.68;5.07;;;15.50;96.60;;;;;;5071498;28;20066;-85
2023/08/08 07:24:28;;;;;;;7.78;4.95;;;15.80;97.60;;;;;;5070389;28;20457;-85
2023/08/08 07:26:58;;;;;;;9.38;5.07;;;16.10;98.30;;;;;;5070600;28;20549;-84
2023/08/08 07:29:23;;;;;;;11.40;5.28;;;16.10;92.30;;;;;;5085875;28;20405;-84
2023/08/08 07:31:50;;;;;;;10.23;4.85;;;16.50;95.10;;;;;;5069970;28;20029;-84
2023/08/08 07:34:16;;;;;;;8.60;4.50;;;16.30;92.60;;;;;;5071248;28;20024;-83
2023/08/08 07:36:41;;;;;;;7.63;3.53;;;16.20;90.80;;;;;;5069686;28;20074;-83
2023/08/08 07:39:07;;;;;;;7.35;5.45;;;16.30;91.20;;;;;;5071665;28;20508;-82
2023/08/08 07:41:32;;;;;;;9.30;5.00;;;16.30;88.90;;;;;;5071339;28;20179;-83
2023/08/08 07:43:58;;;;;;;4.63;3.35;;;16.20;88.40;;;;;;5074789;28;20029;-84
2023/08/08 07:46:23;;;;;;;6.45;4.03;;;16.30;88.80;;;;;;5071402;28;20028;-82
2023/08/08 07:48:49;;;;;;;11.13;5.78;;;16.20;89.70;;;;;;5070219;28;20021;-82
2023/08/08 07:51:15;;;;;;;9.90;5.90;;;15.90;86.00;;;;;;5071993;28;20024;-82
2023/08/08 07:53:40;;;;;;;7.05;5.20;;;15.70;87.90;;;;;;5068330;28;20036;-83
2023/08/08 07:56:06;;;;;;;9.70;4.75;;;15.50;89.10;;;;;;5070592;28;20041;-82
2023/08/08 07:58:32;;;;;;;5.20;3.55;;;15.50;94.10;;;;;;5071640;28;20020;-81
2023/08/08 08:00:59;;;;;;;6.72;3.45;;;15.80;96.20;;;;;;5069975;28;20028;-85
2023/08/08 08:03:25;;;;;;;4.18;3.30;;;16.10;92.10;;;;;;5069894;28;20033;-84
2023/08/08 08:05:51;;;;;;;3.92;2.72;;;16.20;88.40;;;;;;5069159;28;20067;-84
2023/08/08 08:08:17;;;;;;;7.03;3.72;;;16.20;85.80;;;;;;5069062;28;20040;-84
2023/08/08 08:10:42;;;;;;;8.23;4.65;;;16.10;83.80;;;;;;5069106;28;20476;-84
2023/08/08 08:13:08;;;;;;;6.40;4.25;;;15.90;84.10;;;;;;5070669;28;20095;-83
2023/08/08 08:15:34;;;;;;;5.43;3.55;;;15.80;81.40;;;;;;5070020;28;20056;-84
2023/08/08 08:17:59;;;;;;;4.28;3.17;;;15.70;81.60;;;;;;5071168;28;20040;-83
2023/08/08 08:20:25;;;;;;;6.40;3.22;;;15.60;82.70;;;;;;5070669;28;20056;-83
2023/08/08 08:22:52;;;;;;;4.15;2.70;;;15.70;86.50;;;;;;5072962;28;20027;-84
2023/08/08 08:25:18;;;;;;;4.00;3.20;;;15.70;90.10;;;;;;5075337;28;20482;-84
2023/08/08 08:27:44;;;;;;;4.40;3.47;;;15.80;92.00;;;;;;5073288;28;20046;-84
2023/08/08 08:30:10;;;;;;;4.80;3.45;;;15.80;92.40;;;;;;5073921;28;20020;-82
2023/08/08 08:32:36;;;;;;;5.65;3.05;;;15.80;96.20;;;;;;5073004;28;20021;-81
2023/08/08 08:35:06;;;;;;;5.47;2.70;;;15.70;93.90;;;;;;5073682;28;20066;-80
2023/08/08 08:37:32;;;;;;;5.72;3.25;;;15.60;93.60;;;;;;5070521;28;20042;-80
2023/08/08 08:39:57;;;;;;;4.72;2.70;;;15.60;89.60;;;;;;5074927;28;20020;-80
2023/08/08 08:42:24;;;;;;;5.00;2.47;;;15.60;93.00;;;;;;5074318;28;20028;-80
2023/08/08 08:44:51;;;;;;;3.70;2.13;;;15.60;89.20;;;;;;5073452;28;20035;-80
2023/08/08 08:47:20;;;;;;;5.60;1.90;;;15.70;90.60;;;;;;5071241;28;20533;-81
2023/08/08 08:49:45;;;;;;;3.17;2.08;;;15.70;88.90;;;;;;5073267;28;20032;-81
2023/08/08 08:52:12;;;;;;;2.83;2.17;;;15.70;87.80;;;;;;5073689;28;20013;-81
2023/08/08 08:54:38;;;;;;;5.35;2.28;;;15.70;87.90;;;;;;5056095;28;20033;-81
2023/08/08 08:57:04;;;;;;;5.40;2.10;;;15.70;86.20;;;;;;5053149;28;20123;-81
2023/08/08 08:59:30;;;;;;;5.95;2.35;;;15.70;87.20;;;;;;5070622;28;20539;-83
2023/08/08 09:01:56;;;;;;;4.25;2.45;;;15.80;85.30;;;;;;5069320;28;20044;-84
2023/08/08 09:04:23;;;;;;;4.35;1.92;;;16.40;87.50;;;;;;5072432;28;20028;-84
2023/08/08 09:06:50;;;;;;;4.13;1.95;;;16.90;82.40;;;;;;5070947;28;20043;-84
2023/08/08 09:09:16;;;;;;;4.07;2.10;;;17.00;82.00;;;;;;5065391;28;20100;-84
2023/08/08 09:11:47;;;;;;;2.40;2.13;;;17.10;80.90;;;;;;5071652;28;20486;-84
2023/08/08 09:14:21;;;;;;;2.22;1.75;;;17.20;76.90;;;;;;5067894;28;20048;-85
2023/08/08 09:16:47;;;;;;;2.00;1.60;;;17.10;77.50;;;;;;5072198;28;20068;-84
2023/08/08 09:19:17;;;;;;;5.25;2.13;;;17.10;80.10;;;;;;5070235;28;20125;-84
2023/08/08 09:21:43;;;;;;;2.65;1.75;;;17.10;80.90;;;;;;5071084;28;20033;-84
2023/08/08 09:24:09;;;;;;;2.70;1.60;;;17.20;80.80;;;;;;5053482;28;20549;-84
2023/08/08 09:26:35;;;;;;;2.80;1.90;;;17.10;79.40;;;;;;5066964;28;20112;-84
2023/08/08 09:29:04;;;;;;;5.85;2.08;;;16.90;79.30;;;;;;5072200;28;20060;-84
2023/08/08 09:31:30;;;;;;;4.93;1.92;;;16.80;82.00;;;;;;5071273;28;20116;-81
2023/08/08 09:34:01;;;;;;;2.03;1.50;;;16.60;85.50;;;;;;5063376;28;20107;-81
2023/08/08 09:36:27;;;;;;;4.32;1.70;;;16.10;87.10;;;;;;5071854;28;20452;-80
2023/08/08 09:38:53;;;;;;;7.72;2.17;;;15.80;92.80;;;;;;5067497;28;20107;-80
2023/08/08 09:41:21;;;;;;;8.07;2.60;;;15.60;99.90;;;;;;5070970;28;20033;-80
2023/08/08 09:43:48;;;;;;;4.28;3.17;;;14.90;99.90;;;;;;5078442;28;20509;-80
2023/08/08 09:46:15;;;;;;;6.93;4.20;;;14.50;99.90;;;;;;5071238;28;20085;-81
2023/08/08 09:48:42;;;;;;;4.88;2.60;;;14.20;99.90;;;;;;5068767;28;20025;-79
2023/08/08 09:51:08;;;;;;;3.95;2.65;;;14.30;99.90;;;;;;5069200;28;20040;-79
2023/08/08 09:53:35;;;;;;;3.47;3.17;;;14.40;99.90;;;;;;5070036;28;20628;-79
2023/08/08 09:56:04;;;;;;;3.90;3.45;;;14.50;99.90;;;;;;5072019;28;20056;-79
2023/08/08 09:58:31;;;;;;;3.05;2.25;;;14.80;99.90;;;;;;5071977;28;20082;-80
2023/08/08 10:00:56;;;;;;;2.60;1.73;;;15.10;99.90;;;;;;5069797;28;20067;-83
2023/08/08 10:03:22;;;;;;;2.05;1.80;;;15.00;99.90;;;;;;5071155;28;20024;-80
2023/08/08 10:05:48;;;;;;;2.55;1.90;;;14.90;99.90;;;;;;5068341;28;20032;-80
2023/08/08 10:08:18;;;;;;;3.35;2.17;;;14.90;99.90;;;;;;5070979;28;20025;-80
2023/08/08 10:10:46;;;;;;;1.90;1.75;;;15.00;99.90;;;;;;5069913;28;20431;-81
2023/08/08 10:13:23;;;;;;;3.80;2.38;;;15.00;99.90;;;;;;5070016;28;20389;-80
2023/08/08 10:15:49;;;;;;;3.75;2.10;;;15.10;99.90;;;;;;5050192;28;20562;-79
2023/08/08 10:18:15;;;;;;;2.92;2.30;;;15.20;99.90;;;;;;5069470;28;20107;-80
2023/08/08 10:20:51;;;;;;;2.75;2.22;;;15.20;99.90;;;;;;5069879;28;20103;-81
2023/08/08 10:23:17;;;;;;;3.40;2.55;;;15.20;99.90;;;;;;5068057;28;20017;-81
2023/08/08 10:25:51;;;;;;;5.03;3.30;;;15.20;99.90;;;;;;5071466;28;20025;-81
2023/08/08 10:28:19;;;;;;;4.32;3.33;;;15.30;99.90;;;;;;5066825;28;20023;-81
2023/08/08 10:30:47;;;;;;;4.20;3.63;;;15.50;99.90;;;;;;5070695;28;20016;-81
2023/08/08 10:33:18;;;;;;;7.30;4.22;;;15.50;99.90;;;;;;5070811;28;20024;-84
2023/08/08 10:35:51;;;;;;;7.53;4.40;;;15.50;99.90;;;;;;5064388;28;20044;-81
2023/08/08 10:38:16;;;;;;;7.30;4.47;;;15.60;99.90;;;;;;5068073;28;20108;-80
2023/08/08 10:40:43;;;;;;;6.15;4.55;;;15.70;99.90;;;;;;5070731;28;20111;-82
2023/08/08 10:43:13;;;;;;;8.38;4.90;;;15.70;99.90;;;;;;5068255;28;20039;-81
2023/08/08 10:45:42;;;;;;;9.85;5.38;;;15.90;99.90;;;;;;5069324;28;20029;-81
2023/08/08 10:48:09;;;;;;;11.88;5.75;;;16.00;99.90;;;;;;5069008;28;20029;-81
2023/08/08 10:50:41;;;;;;;10.93;5.82;;;16.20;99.90;;;;;;5069404;28;20050;-82
2023/08/08 10:53:09;;;;;;;8.25;5.00;;;16.30;99.90;;;;;;5069227;28;20025;-81
2023/08/08 10:55:36;;;;;;;7.75;4.53;;;16.30;99.90;;;;;;5070783;28;20120;-81
2023/08/08 10:58:12;;;;;;;6.68;4.40;;;16.30;99.90;;;;;;5068385;28;20544;-81
2023/08/08 11:00:39;;;;;;;6.53;5.07;;;16.30;99.90;;;;;;5077201;28;20473;-81
2023/08/08 11:03:09;;;;;;;7.80;4.55;;;16.10;99.90;;;;;;5069732;28;20496;-81
2023/08/08 11:05:36;;;;;;;9.05;5.10;;;16.00;99.90;;;;;;5069985;28;20052;-81
2023/08/08 11:08:04;;;;;;;10.73;4.70;;;16.00;99.90;;;;;;5069044;28;20039;-80
2023/08/08 11:10:34;;;;;;;13.25;4.60;;;16.00;99.90;;;;;;5068446;28;20424;-80
2023/08/08 11:13:08;;;;;;;5.95;3.35;;;16.20;99.90;;;;;;5064476;28;20079;-81
2023/08/08 11:15:37;;;;;;;7.18;5.53;;;16.10;99.90;;;;;;5066403;28;20088;-81
2023/08/08 11:18:03;;;;;;;10.63;6.45;;;15.90;99.90;;;;;;5068705;28;20028;-81
2023/08/08 11:20:34;;;;;;;10.10;5.35;;;15.80;99.90;;;;;;5068470;28;20020;-81
2023/08/08 11:23:00;;;;;;;9.80;5.68;;;15.80;99.90;;;;;;5066822;28;20028;-80
2023/08/08 11:25:28;;;;;;;13.32;8.23;;;15.90;99.90;;;;;;5068239;28;20052;-81
2023/08/08 11:27:55;;;;;;;27.27;12.52;;;15.90;99.90;;;;;;5071107;28;20040;-81
2023/08/08 11:30:22;;;;;;;19.58;9.48;;;15.80;99.90;;;;;;5070788;28;20027;-81
2023/08/08 11:32:50;;;;;;;24.25;12.35;;;15.50;99.90;;;;;;5068874;28;20032;-81
2023/08/08 11:35:24;;;;;;;34.20;16.95;;;15.10;99.90;;;;;;5069162;28;20043;-81
2023/08/08 11:37:55;;;;;;;25.38;12.48;;;14.70;99.90;;;;;;5069153;28;20036;-81
2023/08/08 11:40:23;;;;;;;42.88;19.25;;;14.40;99.90;;;;;;5069336;28;20016;-79
2023/08/08 11:42:51;;;;;;;32.67;15.00;;;14.40;99.90;;;;;;5070194;28;20045;-80
2023/08/08 11:45:17;;;;;;;52.85;20.23;;;14.50;99.90;;;;;;5068998;28;20112;-80
2023/08/08 11:47:42;;;;;;;46.38;19.70;;;14.70;99.90;;;;;;5066629;28;20028;-81
2023/08/08 11:50:11;;;;;;;28.02;11.90;;;15.10;99.90;;;;;;5069327;28;20033;-82
2023/08/08 11:52:41;;;;;;;24.92;11.05;;;15.50;99.90;;;;;;5070788;28;20496;-82
2023/08/08 11:55:10;;;;;;;12.85;6.70;;;15.80;99.90;;;;;;5072714;28;20032;-81
2023/08/08 11:57:40;;;;;;;35.88;15.20;;;16.10;99.90;;;;;;5071864;28;20028;-82
2023/08/08 12:00:13;;;;;;;42.35;17.00;;;16.40;99.90;;;;;;5069268;28;20043;-81
2023/08/08 12:02:41;;;;;;;55.55;21.60;;;16.60;99.90;;;;;;5074687;28;20469;-82
2023/08/08 12:05:09;;;;;;;54.38;23.42;;;16.90;99.90;;;;;;5074267;28;20024;-82
2023/08/08 12:07:44;;;;;;;99.40;36.72;;;17.10;99.90;;;;;;5074861;28;20028;-82
2023/08/08 12:10:16;;;;;;;42.83;16.00;;;17.20;99.90;;;;;;5073158;28;20031;-82
2023/08/08 12:12:42;;;;;;;74.85;25.67;;;17.40;99.90;;;;;;5073220;28;20539;-82
2023/08/08 12:15:08;;;;;;;82.75;27.88;;;17.50;99.90;;;;;;5074541;28;20044;-82
2023/08/08 12:17:35;;;;;;;25.33;12.65;;;17.80;99.90;;;;;;5074346;28;20025;-81
2023/08/08 12:20:05;;;;;;;66.85;23.05;;;17.90;92.50;;;;;;5073180;28;20448;-82
2023/08/08 12:22:31;;;;;;;12.85;5.50;;;18.10;82.80;;;;;;5073895;28;20028;-82
2023/08/08 12:24:57;;;;;;;36.75;14.15;;;17.90;77.10;;;;;;5075320;28;20024;-82
2023/08/08 12:27:22;;;;;;;45.00;17.00;;;18.00;76.70;;;;;;5073899;28;20016;-83
2023/08/08 12:29:48;;;;;;;18.23;6.93;;;18.00;76.00;;;;;;5075007;28;20107;-82
2023/08/08 12:32:14;;;;;;;30.85;12.18;;;17.90;71.70;;;;;;5070914;28;20040;-82
2023/08/08 12:34:39;;;;;;;9.02;4.30;;;18.00;70.50;;;;;;5074177;28;20047;-82
2023/08/08 12:37:05;;;;;;;10.63;4.82;;;18.10;69.20;;;;;;5075210;28;20015;-82
2023/08/08 12:39:30;;;;;;;28.50;10.73;;;18.20;70.10;;;;;;5073833;28;20367;-82
2023/08/08 12:41:56;;;;;;;3.80;2.38;;;18.20;71.30;;;;;;5074732;28;20020;-82